Time;durP1;ratioP1;P1;durP2;ratioP2;P2;SDS_P1;SDS_P2;PMS_P1;PMS_P2;Temp;Humidity;BMP_temperature;BMP_pressure;BME280_temperature;BME280_humidity;BME280_pressure;Samples;Min_cycle;Max_cycle;Signal;HPM_P1;HPM_P2
2023/01/13 00:00:01;;;;;;;0.53;0.30;;;6.60;99.90;;;;;;5023353;28;20566;-76
2023/01/13 00:02:29;;;;;;;0.40;0.20;;;6.60;99.90;;;;;;5025877;28;20460;-76
2023/01/13 00:04:56;;;;;;;1.60;0.30;;;6.70;99.90;;;;;;5022911;28;20934;-76
2023/01/13 00:07:23;;;;;;;2.47;0.50;;;6.60;99.90;;;;;;5024442;28;20450;-76
2023/01/13 00:09:51;;;;;;;1.00;0.30;;;6.60;99.90;;;;;;5018906;28;20568;-76
2023/01/13 00:12:18;;;;;;;0.50;0.20;;;6.60;99.90;;;;;;5025661;28;20565;-76
2023/01/13 00:14:45;;;;;;;0.40;0.27;;;6.60;99.90;;;;;;5018759;28;20496;-76
2023/01/13 00:17:12;;;;;;;0.40;0.20;;;6.60;99.90;;;;;;5023662;28;20994;-76
2023/01/13 00:19:39;;;;;;;0.77;0.40;;;6.50;99.90;;;;;;5023730;28;20538;-76
2023/01/13 00:22:06;;;;;;;0.40;0.20;;;6.50;99.90;;;;;;5021758;28;20953;-76
2023/01/13 00:24:33;;;;;;;0.70;0.30;;;6.50;99.90;;;;;;5019821;28;20457;-76
2023/01/13 00:27:01;;;;;;;0.97;0.30;;;6.50;99.90;;;;;;5025468;28;20479;-76
2023/01/13 00:29:28;;;;;;;0.43;0.30;;;6.50;99.90;;;;;;5021258;28;20489;-75
2023/01/13 00:31:55;;;;;;;0.40;0.30;;;6.40;99.90;;;;;;5022225;28;20458;-75
2023/01/13 00:34:22;;;;;;;0.40;0.20;;;6.50;99.90;;;;;;5019811;28;20827;-75
2023/01/13 00:36:49;;;;;;;0.40;0.20;;;6.50;99.90;;;;;;5023682;28;20942;-75
2023/01/13 00:39:16;;;;;;;1.33;0.40;;;6.60;99.90;;;;;;5018902;28;20547;-75
2023/01/13 00:44:28;;;;;;;0.67;0.50;;;6.80;99.90;;;;;;5020440;28;20449;-75
2023/01/13 00:46:55;;;;;;;0.33;0.20;;;6.80;99.90;;;;;;5025599;28;20485;-75
2023/01/13 00:49:22;;;;;;;1.30;0.20;;;6.80;99.90;;;;;;5025520;28;20451;-75
2023/01/13 00:51:49;;;;;;;0.40;0.20;;;6.80;99.90;;;;;;5024840;28;20965;-75
2023/01/13 00:54:17;;;;;;;0.40;0.30;;;6.90;99.90;;;;;;5024055;28;20472;-75
2023/01/13 00:56:44;;;;;;;0.57;0.30;;;6.80;99.90;;;;;;5025849;28;20941;-75
2023/01/13 00:59:13;;;;;;;0.50;0.20;;;6.80;99.90;;;;;;5023778;28;20954;-75
2023/01/13 01:01:41;;;;;;;0.30;0.20;;;6.80;99.90;;;;;;5021893;28;20926;-75
2023/01/13 01:04:08;;;;;;;0.40;0.40;;;6.80;99.90;;;;;;5022562;28;20743;-75
2023/01/13 01:06:35;;;;;;;0.30;0.20;;;6.90;99.90;;;;;;5022117;28;20230;-75
2023/01/13 01:09:03;;;;;;;0.30;0.20;;;6.90;99.90;;;;;;5019331;28;20465;-75
2023/01/13 01:11:32;;;;;;;0.40;0.23;;;6.80;99.90;;;;;;5024724;28;20929;-75
2023/01/13 01:14:02;;;;;;;0.40;0.20;;;6.80;99.90;;;;;;5018746;28;20495;-75
2023/01/13 01:16:31;;;;;;;0.40;0.30;;;6.70;99.90;;;;;;5023849;28;20482;-75
2023/01/13 01:19:00;;;;;;;0.40;0.20;;;6.70;99.90;;;;;;5020534;28;20488;-75
2023/01/13 01:21:28;;;;;;;0.40;0.20;;;6.70;99.90;;;;;;5021616;28;20525;-75
2023/01/13 01:23:58;;;;;;;0.67;0.30;;;6.70;99.90;;;;;;5018491;28;21031;-75
2023/01/13 01:26:26;;;;;;;0.40;0.20;;;6.80;99.90;;;;;;5024346;28;20496;-75
2023/01/13 01:28:53;;;;;;;0.50;0.20;;;6.80;99.90;;;;;;5019798;28;20508;-75
2023/01/13 01:31:23;;;;;;;2.00;0.80;;;6.80;99.90;;;;;;5024537;28;20539;-75
2023/01/13 01:33:50;;;;;;;0.40;0.30;;;6.90;99.90;;;;;;5020093;28;20512;-75
2023/01/13 01:36:20;;;;;;;0.37;0.20;;;6.90;99.90;;;;;;5024671;28;20482;-75
2023/01/13 01:38:48;;;;;;;0.40;0.30;;;6.90;99.90;;;;;;5016779;28;21172;-75
2023/01/13 01:41:17;;;;;;;0.60;0.30;;;6.80;99.90;;;;;;5025987;28;20931;-75
2023/01/13 01:44:01;;;;;;;0.40;0.20;;;6.80;99.90;;;;;;5020766;28;20515;-75
2023/01/13 01:46:30;;;;;;;0.60;0.30;;;6.90;99.90;;;;;;5019656;28;20460;-75
2023/01/13 01:49:08;;;;;;;0.93;0.20;;;7.00;99.90;;;;;;5022227;28;20514;-75
2023/01/13 01:51:42;;;;;;;1.00;0.30;;;7.00;99.90;;;;;;5019946;28;20555;-75
2023/01/13 01:54:13;;;;;;;1.40;0.20;;;7.10;99.90;;;;;;5022664;28;20537;-75
2023/01/13 01:56:42;;;;;;;0.87;0.20;;;7.00;99.90;;;;;;5020780;28;20503;-75
2023/01/13 01:59:10;;;;;;;0.60;0.40;;;7.00;99.90;;;;;;5021683;28;20526;-75
2023/01/13 02:01:38;;;;;;;0.30;0.20;;;7.10;99.90;;;;;;5021218;28;20539;-75
2023/01/13 02:04:12;;;;;;;0.53;0.20;;;7.10;99.90;;;;;;5021589;28;20486;-75
2023/01/13 02:06:41;;;;;;;0.40;0.20;;;7.20;99.90;;;;;;5020225;28;20493;-76
2023/01/13 02:09:09;;;;;;;0.40;0.25;;;7.20;99.90;;;;;;5019800;28;20730;-75
2023/01/13 02:14:23;;;;;;;0.37;0.20;;;7.10;99.90;;;;;;5021353;28;20496;-75
2023/01/13 02:17:06;;;;;;;0.40;0.20;;;7.10;99.90;;;;;;5021159;28;20486;-75
2023/01/13 02:20:18;;;;;;;0.40;0.30;;;7.00;99.90;;;;;;5018692;28;20829;-75
2023/01/13 02:26:20;;;;;;;0.40;0.30;;;7.10;99.90;;;;;;5022713;28;20518;-75
2023/01/13 02:32:03;;;;;;;1.15;0.30;;;7.10;99.90;;;;;;5017368;28;20464;-75
2023/01/13 02:34:37;;;;;;;0.73;0.20;;;7.00;99.90;;;;;;5025873;28;20230;-75
2023/01/13 02:37:11;;;;;;;0.40;0.20;;;6.90;99.90;;;;;;5021445;28;20490;-75
2023/01/13 02:39:48;;;;;;;0.40;0.20;;;6.80;99.90;;;;;;5022482;28;20481;-75
2023/01/13 02:45:12;;;;;;;0.37;0.20;;;6.50;99.90;;;;;;5020705;28;20936;-75
2023/01/13 02:47:44;;;;;;;0.50;0.20;;;6.50;99.90;;;;;;5022839;28;20996;-75
2023/01/13 02:50:16;;;;;;;0.40;0.30;;;6.50;99.90;;;;;;5020777;28;20449;-75
2023/01/13 02:52:46;;;;;;;1.07;0.27;;;6.50;99.90;;;;;;5025451;28;20454;-75
2023/01/13 02:55:16;;;;;;;0.40;0.23;;;6.40;99.90;;;;;;5027004;28;20837;-75
2023/01/13 02:57:45;;;;;;;0.40;0.20;;;6.50;99.90;;;;;;5024059;28;20508;-75
2023/01/13 03:00:15;;;;;;;0.50;0.30;;;6.40;99.90;;;;;;5023339;28;20965;-75
2023/01/13 03:02:43;;;;;;;0.40;0.30;;;6.30;99.90;;;;;;5022020;28;20529;-75
2023/01/13 03:05:15;;;;;;;0.40;0.20;;;6.20;99.90;;;;;;5024970;28;20521;-75
2023/01/13 03:08:03;;;;;;;1.43;0.40;;;6.20;99.90;;;;;;5023647;28;20545;-75
2023/01/13 03:10:40;;;;;;;0.40;0.30;;;6.30;99.90;;;;;;5027463;28;20454;-75
2023/01/13 03:13:19;;;;;;;0.40;0.25;;;6.30;99.90;;;;;;5025185;28;20469;-75
2023/01/13 03:15:54;;;;;;;0.40;0.30;;;6.30;99.90;;;;;;5025984;28;20807;-75
2023/01/13 03:18:35;;;;;;;0.40;0.20;;;6.40;99.90;;;;;;5023451;28;20507;-75
2023/01/13 03:21:07;;;;;;;0.40;0.20;;;6.50;99.90;;;;;;5019009;28;20583;-75
2023/01/13 03:23:41;;;;;;;1.70;0.30;;;6.50;99.90;;;;;;5020596;28;20875;-75
2023/01/13 03:26:14;;;;;;;0.60;0.30;;;6.50;99.90;;;;;;5025870;28;20490;-75
2023/01/13 03:28:45;;;;;;;0.40;0.20;;;6.60;99.90;;;;;;5021882;28;20473;-75
2023/01/13 03:31:17;;;;;;;0.80;0.30;;;6.80;99.90;;;;;;5020284;28;20506;-75
2023/01/13 03:33:50;;;;;;;0.50;0.30;;;6.90;99.90;;;;;;5023099;28;20501;-75
2023/01/13 03:36:22;;;;;;;1.93;0.30;;;7.00;99.90;;;;;;5024903;28;20545;-75
2023/01/13 03:38:53;;;;;;;0.63;0.30;;;6.90;99.90;;;;;;5023936;28;20449;-75
2023/01/13 03:41:25;;;;;;;0.40;0.20;;;6.90;99.90;;;;;;5027167;28;20531;-75
2023/01/13 03:46:48;;;;;;;0.50;0.20;;;6.80;99.90;;;;;;5022731;28;20477;-75
2023/01/13 03:49:19;;;;;;;1.17;0.30;;;6.70;99.90;;;;;;5024707;28;20624;-75
2023/01/13 03:51:52;;;;;;;1.33;0.30;;;6.70;99.90;;;;;;5026037;28;20483;-75
2023/01/13 03:54:22;;;;;;;1.07;0.30;;;6.60;99.90;;;;;;5024983;28;20459;-75
2023/01/13 03:56:54;;;;;;;0.40;0.20;;;6.50;99.90;;;;;;5020225;28;21167;-75
2023/01/13 03:59:27;;;;;;;0.40;0.20;;;6.50;99.90;;;;;;5024573;28;20800;-75
2023/01/13 04:02:01;;;;;;;0.43;0.20;;;6.50;99.90;;;;;;5023014;28;20519;-75
2023/01/13 04:04:32;;;;;;;0.50;0.30;;;6.60;99.90;;;;;;5021143;28;20501;-75
2023/01/13 04:07:07;;;;;;;0.70;0.30;;;6.70;99.90;;;;;;5022144;28;20458;-75
2023/01/13 04:09:40;;;;;;;0.73;0.20;;;6.80;99.90;;;;;;5022233;28;20816;-75
2023/01/13 04:12:11;;;;;;;0.30;0.20;;;6.80;99.90;;;;;;5024241;28;20480;-75
2023/01/13 04:14:38;;;;;;;0.37;0.20;;;6.90;99.90;;;;;;5019498;28;20489;-77
2023/01/13 04:17:05;;;;;;;2.67;0.40;;;7.00;99.90;;;;;;5022948;28;20490;-78
2023/01/13 04:19:34;;;;;;;0.37;0.20;;;7.00;99.90;;;;;;5024694;28;20963;-78
2023/01/13 04:22:01;;;;;;;0.60;0.40;;;7.10;99.90;;;;;;5020166;28;21137;-78
2023/01/13 04:24:28;;;;;;;0.70;0.38;;;7.30;99.90;;;;;;5021139;28;20999;-78
2023/01/13 04:26:55;;;;;;;0.83;0.40;;;7.30;99.90;;;;;;5017977;28;20249;-78
2023/01/13 04:29:22;;;;;;;2.00;0.30;;;7.40;99.90;;;;;;5022335;28;20501;-78
2023/01/13 04:31:49;;;;;;;0.50;0.40;;;7.30;99.90;;;;;;5019100;28;20464;-78
2023/01/13 04:34:16;;;;;;;0.50;0.30;;;7.40;99.90;;;;;;5020356;28;20527;-78
2023/01/13 04:36:44;;;;;;;0.40;0.20;;;7.30;99.90;;;;;;5017387;28;20564;-78
2023/01/13 04:39:11;;;;;;;2.10;0.23;;;7.30;99.90;;;;;;5022484;28;20461;-78
2023/01/13 04:44:19;;;;;;;0.50;0.30;;;7.20;99.90;;;;;;5024579;28;20701;-78
2023/01/13 04:46:46;;;;;;;0.50;0.20;;;7.30;99.90;;;;;;5020785;28;20478;-78
2023/01/13 04:49:14;;;;;;;0.60;0.30;;;7.40;99.90;;;;;;5021066;28;20557;-75
2023/01/13 04:51:41;;;;;;;1.00;0.33;;;7.40;99.90;;;;;;5023990;28;20518;-75
2023/01/13 04:54:09;;;;;;;0.50;0.30;;;7.50;99.90;;;;;;5019563;28;20916;-75
2023/01/13 04:56:36;;;;;;;1.27;0.30;;;7.50;99.90;;;;;;5023565;28;20543;-75
2023/01/13 04:59:03;;;;;;;0.40;0.23;;;7.40;99.90;;;;;;5018452;28;20953;-75
2023/01/13 05:01:31;;;;;;;0.43;0.30;;;7.30;99.90;;;;;;5023068;28;20552;-75
2023/01/13 05:03:58;;;;;;;3.20;0.30;;;7.30;99.90;;;;;;5018429;28;20477;-75
2023/01/13 05:06:25;;;;;;;1.60;0.23;;;7.30;99.90;;;;;;5020195;28;20481;-75
2023/01/13 05:08:51;;;;;;;0.70;0.30;;;7.30;99.90;;;;;;5015825;28;20563;-75
2023/01/13 05:17:01;;;;;;;0.70;0.20;;;7.10;99.90;;;;;;5018526;28;20459;-75
2023/01/13 05:19:28;;;;;;;0.80;0.30;;;7.20;99.90;;;;;;5020874;28;20963;-75
2023/01/13 05:27:26;;;;;;;2.07;0.40;;;7.00;99.90;;;;;;5020627;28;20501;-75
2023/01/13 05:29:53;;;;;;;0.87;0.50;;;6.90;99.90;;;;;;5017757;28;20594;-75
2023/01/13 05:32:21;;;;;;;0.70;0.30;;;6.80;99.90;;;;;;5014827;28;20915;-75
2023/01/13 05:34:48;;;;;;;1.60;0.37;;;6.70;99.90;;;;;;5010585;28;20485;-75
2023/01/13 05:37:15;;;;;;;0.70;0.30;;;6.70;99.90;;;;;;5015277;28;20490;-75
2023/01/13 05:45:13;;;;;;;0.80;0.30;;;6.60;99.90;;;;;;5023048;28;20445;-75
2023/01/13 05:47:40;;;;;;;1.70;0.40;;;6.60;99.90;;;;;;5021088;28;20476;-75
2023/01/13 05:50:08;;;;;;;1.27;0.37;;;6.60;99.90;;;;;;5017960;28;20793;-75
2023/01/13 05:52:35;;;;;;;0.77;0.33;;;6.60;99.90;;;;;;5021441;28;20489;-75
2023/01/13 05:55:01;;;;;;;1.13;0.30;;;6.60;99.90;;;;;;5015423;28;20472;-75
2023/01/13 05:57:30;;;;;;;0.40;0.20;;;6.50;99.90;;;;;;5021873;28;20548;-75
2023/01/13 05:59:57;;;;;;;1.70;0.37;;;6.60;99.90;;;;;;5012354;28;20243;-75
2023/01/13 06:02:25;;;;;;;0.40;0.30;;;6.60;99.90;;;;;;5020026;28;20562;-75
2023/01/13 06:04:52;;;;;;;0.63;0.40;;;6.50;99.90;;;;;;5016826;28;20473;-75
2023/01/13 06:07:19;;;;;;;0.40;0.20;;;6.50;99.90;;;;;;5019325;28;20510;-75
2023/01/13 06:09:46;;;;;;;0.63;0.30;;;6.60;99.90;;;;;;5022025;28;21046;-75
2023/01/13 06:12:14;;;;;;;0.60;0.30;;;6.60;99.90;;;;;;5018110;28;20485;-75
2023/01/13 06:14:42;;;;;;;0.93;0.30;;;6.70;99.90;;;;;;5020549;28;20497;-75
2023/01/13 06:17:10;;;;;;;0.40;0.20;;;6.70;99.90;;;;;;5015328;28;20519;-75
2023/01/13 06:19:37;;;;;;;7.30;3.93;;;6.80;99.90;;;;;;5018650;28;20461;-75
2023/01/13 06:22:13;;;;;;;8.80;5.80;;;6.80;99.90;;;;;;5024744;28;20892;-75
2023/01/13 06:24:40;;;;;;;2.97;2.70;;;6.60;99.90;;;;;;5014140;28;20820;-75
2023/01/13 06:27:08;;;;;;;1.80;0.97;;;6.30;99.90;;;;;;5019358;28;20502;-75
2023/01/13 06:29:36;;;;;;;0.97;0.50;;;6.20;99.90;;;;;;5019507;28;20888;-75
2023/01/13 06:32:10;;;;;;;1.30;0.60;;;6.30;99.90;;;;;;5018324;28;20485;-75
2023/01/13 06:34:38;;;;;;;0.77;0.77;;;6.40;99.90;;;;;;5020461;28;20572;-75
2023/01/13 06:37:06;;;;;;;3.00;1.23;;;6.40;99.90;;;;;;5012732;28;20497;-78
2023/01/13 06:39:34;;;;;;;4.30;2.67;;;6.40;99.90;;;;;;5018816;28;20501;-78
2023/01/13 06:44:48;;;;;;;7.50;1.27;;;6.20;99.90;;;;;;5021532;28;20429;-78
2023/01/13 06:47:17;;;;;;;3.30;2.13;;;6.20;99.90;;;;;;5004573;28;20894;-78
2023/01/13 06:49:43;;;;;;;1.03;0.70;;;6.20;99.90;;;;;;5010753;28;20461;-78
2023/01/13 06:52:10;;;;;;;8.38;7.55;;;6.10;99.90;;;;;;5015848;28;20523;-77
2023/01/13 06:54:37;;;;;;;4.23;3.70;;;6.10;99.90;;;;;;5016922;28;20631;-78
2023/01/13 06:57:04;;;;;;;3.00;1.80;;;6.00;99.90;;;;;;5005500;28;20551;-78
2023/01/13 06:59:33;;;;;;;1.20;0.53;;;6.00;99.90;;;;;;5006841;28;20557;-75
2023/01/13 07:02:00;;;;;;;0.80;0.50;;;5.90;99.90;;;;;;5010884;28;20539;-75
2023/01/13 07:04:28;;;;;;;0.53;0.50;;;5.80;99.90;;;;;;5007381;28;21009;-75
2023/01/13 07:06:55;;;;;;;0.70;0.50;;;5.80;99.90;;;;;;5012797;28;20561;-75
2023/01/13 07:09:22;;;;;;;1.93;0.50;;;5.70;99.90;;;;;;5010322;28;20832;-75
2023/01/13 07:11:50;;;;;;;5.90;1.13;;;5.80;99.90;;;;;;5018099;28;20503;-75
2023/01/13 07:17:02;;;;;;;6.10;2.33;;;5.90;99.90;;;;;;5018578;28;20481;-75
2023/01/13 07:19:30;;;;;;;7.80;4.80;;;6.00;99.90;;;;;;5016063;28;20481;-75
2023/01/13 07:21:57;;;;;;;14.43;12.93;;;6.10;99.90;;;;;;5022744;28;20518;-75
2023/01/13 07:24:24;;;;;;;4.37;2.70;;;6.10;99.90;;;;;;5021679;28;20511;-77
2023/01/13 07:26:52;;;;;;;5.50;4.00;;;6.10;99.90;;;;;;5018285;28;20469;-78
2023/01/13 07:29:19;;;;;;;9.90;7.40;;;6.10;99.90;;;;;;5012749;28;20537;-78
2023/01/13 07:31:46;;;;;;;7.63;5.50;;;6.10;99.90;;;;;;5010038;28;20476;-75
2023/01/13 07:34:13;;;;;;;4.13;3.63;;;6.10;99.90;;;;;;5018876;28;21187;-75
2023/01/13 07:36:41;;;;;;;1.07;0.80;;;6.10;99.90;;;;;;5037138;28;20450;-75
2023/01/13 07:39:08;;;;;;;0.40;0.40;;;6.10;99.90;;;;;;5010758;28;20568;-75
2023/01/13 07:44:26;;;;;;;3.87;2.47;;;6.30;99.90;;;;;;5015331;28;20462;-75
2023/01/13 07:46:53;;;;;;;0.80;0.80;;;6.30;99.90;;;;;;5016774;28;20469;-75
2023/01/13 07:49:20;;;;;;;1.65;0.63;;;6.30;99.90;;;;;;5019735;28;20481;-75
2023/01/13 07:51:49;;;;;;;2.53;1.60;;;6.30;99.90;;;;;;5013408;28;20231;-76
2023/01/13 07:54:16;;;;;;;2.13;1.47;;;6.20;99.90;;;;;;5020149;28;20476;-75
2023/01/13 07:56:42;;;;;;;1.57;0.83;;;6.20;99.90;;;;;;5021395;28;20510;-75
2023/01/13 07:59:09;;;;;;;1.37;0.50;;;6.20;99.90;;;;;;5021347;28;20497;-75
2023/01/13 08:01:36;;;;;;;0.60;0.50;;;6.20;99.90;;;;;;5023613;28;20483;-75
2023/01/13 08:04:03;;;;;;;0.60;0.40;;;6.30;99.90;;;;;;5021117;28;20517;-76
2023/01/13 08:06:30;;;;;;;0.80;0.70;;;6.30;99.90;;;;;;5024514;28;20487;-75
2023/01/13 08:08:59;;;;;;;6.03;2.60;;;6.30;99.90;;;;;;5031985;28;20448;-75
2023/01/13 08:11:26;;;;;;;2.30;2.07;;;6.40;99.90;;;;;;5027613;28;20484;-75
2023/01/13 08:13:56;;;;;;;2.10;1.30;;;6.50;99.90;;;;;;5025693;28;20450;-75
2023/01/13 08:16:23;;;;;;;1.60;0.40;;;6.60;99.90;;;;;;5022972;28;20462;-75
2023/01/13 08:18:50;;;;;;;1.00;0.50;;;6.70;99.90;;;;;;5018011;28;20212;-75
2023/01/13 08:21:17;;;;;;;0.50;0.30;;;6.80;99.90;;;;;;5015621;28;20467;-75
2023/01/13 08:23:45;;;;;;;0.80;0.57;;;6.80;99.90;;;;;;5011534;28;20592;-75
2023/01/13 08:26:16;;;;;;;1.00;0.55;;;6.80;99.90;;;;;;5018752;28;20524;-75
2023/01/13 08:28:43;;;;;;;0.53;0.40;;;6.80;99.90;;;;;;5027664;28;20324;-76
2023/01/13 08:31:11;;;;;;;0.70;0.50;;;6.80;99.90;;;;;;5014785;28;20497;-75
2023/01/13 08:33:39;;;;;;;0.70;0.43;;;6.80;99.90;;;;;;5025504;28;20477;-75
2023/01/13 08:36:08;;;;;;;1.17;0.50;;;6.80;99.90;;;;;;5017781;28;20462;-75
2023/01/13 08:38:35;;;;;;;1.90;0.90;;;6.80;99.90;;;;;;5025790;28;20312;-75
2023/01/13 08:41:08;;;;;;;1.63;0.60;;;6.90;99.90;;;;;;5021183;28;20483;-76
2023/01/13 08:43:37;;;;;;;1.40;0.70;;;6.90;99.90;;;;;;5020567;28;20585;-76
2023/01/13 08:46:04;;;;;;;1.00;0.53;;;7.00;99.90;;;;;;5013159;28;20458;-76
2023/01/13 08:48:31;;;;;;;2.87;0.70;;;7.10;99.90;;;;;;5021433;28;20450;-76
2023/01/13 08:51:02;;;;;;;8.43;2.80;;;7.20;99.90;;;;;;5019136;28;20562;-76
2023/01/13 08:53:29;;;;;;;4.80;3.33;;;7.20;99.90;;;;;;5018377;28;20462;-76
2023/01/13 08:55:56;;;;;;;3.50;3.28;;;7.10;99.90;;;;;;5016878;28;21283;-76
2023/01/13 08:58:24;;;;;;;3.60;1.67;;;7.00;99.90;;;;;;5019147;28;20317;-76
2023/01/13 09:00:52;;;;;;;3.50;2.70;;;6.90;99.90;;;;;;5025906;28;20462;-76
2023/01/13 09:03:19;;;;;;;3.33;2.17;;;7.00;99.90;;;;;;5022387;28;20588;-75
2023/01/13 09:05:46;;;;;;;2.97;2.77;;;7.00;99.90;;;;;;5019282;28;20444;-75
2023/01/13 09:08:13;;;;;;;5.17;1.97;;;7.00;99.90;;;;;;5018119;28;21000;-76
2023/01/13 09:10:40;;;;;;;4.20;2.17;;;7.00;99.90;;;;;;5025770;28;20483;-76
2023/01/13 09:13:10;;;;;;;2.10;1.77;;;6.90;99.90;;;;;;5023906;28;20539;-76
2023/01/13 09:15:38;;;;;;;1.83;1.23;;;7.10;99.90;;;;;;5024539;28;20438;-76
2023/01/13 09:18:06;;;;;;;3.30;2.17;;;7.20;99.90;;;;;;5020516;28;20497;-76
2023/01/13 09:20:33;;;;;;;4.17;2.00;;;7.50;99.90;;;;;;5019880;28;20271;-76
2023/01/13 09:23:00;;;;;;;3.87;2.63;;;7.60;99.90;;;;;;5016108;28;20569;-76
2023/01/13 09:25:27;;;;;;;2.30;1.03;;;7.70;99.90;;;;;;5022936;28;20472;-76
2023/01/13 09:27:54;;;;;;;2.87;2.67;;;7.80;99.90;;;;;;5027769;28;20456;-76
2023/01/13 09:30:23;;;;;;;7.97;3.90;;;7.80;99.90;;;;;;5021644;28;20469;-76
2023/01/13 09:34:58;;;;;;;3.00;2.40;;;7.90;99.90;;;;;;5020191;28;20523;-76
2023/01/13 09:35:38;;;;;;;4.40;2.70;;;7.90;99.90;;;;;;5029297;28;20471;-75
2023/01/13 09:38:06;;;;;;;6.17;3.33;;;7.90;99.90;;;;;;5022286;28;20493;-75
2023/01/13 09:40:33;;;;;;;3.23;1.73;;;7.90;99.90;;;;;;5022774;28;20946;-75
2023/01/13 09:45:59;;;;;;;4.57;3.30;;;8.00;99.90;;;;;;4997995;28;20697;-75
2023/01/13 09:48:30;;;;;;;2.90;1.83;;;8.00;99.90;;;;;;5022127;28;20940;-76
2023/01/13 09:51:08;;;;;;;5.28;2.50;;;8.00;99.90;;;;;;5019286;28;20497;-75
2023/01/13 09:53:40;;;;;;;5.83;5.37;;;7.80;99.90;;;;;;5019513;28;20674;-75
2023/01/13 09:56:10;;;;;;;4.07;3.20;;;7.80;99.90;;;;;;5012589;28;20504;-76
2023/01/13 09:58:37;;;;;;;3.57;2.80;;;8.00;99.90;;;;;;5020262;28;21295;-75
2023/01/13 10:01:15;;;;;;;1.20;0.83;;;7.90;99.90;;;;;;5018170;28;20475;-75
2023/01/13 10:03:42;;;;;;;11.00;7.87;;;7.90;99.90;;;;;;5020576;28;20528;-76
2023/01/13 10:06:16;;;;;;;5.65;2.00;;;8.00;99.90;;;;;;5018985;28;20486;-75
2023/01/13 10:08:44;;;;;;;3.83;2.13;;;8.20;99.90;;;;;;5012258;28;20919;-76
2023/01/13 10:14:02;;;;;;;1.63;0.90;;;8.20;99.90;;;;;;5025273;28;20461;-75
2023/01/13 10:16:41;;;;;;;0.83;0.80;;;8.30;99.90;;;;;;5023536;28;20954;-76
2023/01/13 10:19:17;;;;;;;2.20;2.00;;;8.40;99.90;;;;;;5012625;28;20545;-75
2023/01/13 10:22:07;;;;;;;3.23;1.73;;;8.50;99.90;;;;;;5015469;28;20465;-75
2023/01/13 10:24:58;;;;;;;3.03;2.27;;;8.80;99.90;;;;;;5014081;28;20567;-76
2023/01/13 10:27:31;;;;;;;2.60;2.40;;;8.90;99.90;;;;;;5023770;28;20516;-76
2023/01/13 10:29:58;;;;;;;5.20;3.27;;;8.90;99.90;;;;;;5020521;28;20547;-76
2023/01/13 10:32:25;;;;;;;4.43;2.50;;;9.00;99.90;;;;;;5021810;28;20473;-76
2023/01/13 10:34:55;;;;;;;6.50;2.40;;;8.90;99.90;;;;;;5022312;28;20949;-76
2023/01/13 10:37:26;;;;;;;5.77;3.23;;;8.90;99.90;;;;;;5021195;28;20484;-76
2023/01/13 10:39:56;;;;;;;4.50;2.00;;;8.90;99.90;;;;;;5023491;28;20937;-76
2023/01/13 10:42:24;;;;;;;2.00;1.55;;;9.00;99.90;;;;;;5019077;28;20512;-76
2023/01/13 10:44:53;;;;;;;2.33;1.60;;;9.00;99.90;;;;;;5019004;28;20361;-76
2023/01/13 10:47:23;;;;;;;2.50;2.30;;;9.10;99.90;;;;;;5021745;28;20492;-76
2023/01/13 10:50:21;;;;;;;3.53;2.50;;;9.10;99.90;;;;;;5022401;28;20473;-76
2023/01/13 10:53:02;;;;;;;5.47;4.50;;;9.00;99.90;;;;;;5017800;28;20466;-76
2023/01/13 10:55:32;;;;;;;3.20;2.53;;;8.70;99.90;;;;;;5015355;28;20497;-76
2023/01/13 10:58:12;;;;;;;3.30;2.43;;;8.60;99.90;;;;;;5017751;28;20807;-76
2023/01/13 11:00:39;;;;;;;11.70;7.53;;;8.60;99.90;;;;;;5022460;28;20465;-76
2023/01/13 11:03:18;;;;;;;5.87;3.20;;;8.50;99.90;;;;;;5014695;28;20533;-76
2023/01/13 11:05:53;;;;;;;3.73;2.23;;;8.40;99.90;;;;;;5017692;28;20570;-76
2023/01/13 11:08:23;;;;;;;5.07;3.47;;;8.40;99.90;;;;;;5016983;28;20453;-76
2023/01/13 11:10:53;;;;;;;9.07;7.20;;;8.40;99.90;;;;;;5017224;28;21070;-76
2023/01/13 11:13:28;;;;;;;4.73;1.70;;;8.40;99.90;;;;;;5026627;28;20484;-76
2023/01/13 11:15:58;;;;;;;3.10;2.70;;;8.50;99.90;;;;;;5021676;28;21038;-76
2023/01/13 11:18:39;;;;;;;1.67;1.50;;;8.60;99.90;;;;;;5020191;28;20489;-76
2023/01/13 11:21:11;;;;;;;2.80;2.40;;;8.80;99.90;;;;;;5021568;28;20458;-76
2023/01/13 11:23:43;;;;;;;9.27;3.70;;;8.90;99.90;;;;;;5024928;28;20568;-76
2023/01/13 11:26:16;;;;;;;2.70;1.13;;;8.90;99.90;;;;;;5024282;28;20558;-76
2023/01/13 11:28:49;;;;;;;3.93;3.53;;;8.90;99.90;;;;;;5020334;28;20847;-76
2023/01/13 11:31:23;;;;;;;2.77;2.03;;;9.10;99.90;;;;;;5024096;28;20473;-76
2023/01/13 11:33:56;;;;;;;2.67;1.97;;;9.10;99.90;;;;;;5025101;28;20464;-76
2023/01/13 11:36:28;;;;;;;3.72;0.95;;;9.20;99.90;;;;;;5024386;28;20538;-76
2023/01/13 11:39:06;;;;;;;0.70;0.60;;;9.30;99.90;;;;;;5016047;28;20766;-76
2023/01/13 11:41:43;;;;;;;1.30;0.67;;;9.40;99.90;;;;;;5025450;28;20556;-76
2023/01/13 11:44:20;;;;;;;3.87;2.40;;;9.40;99.90;;;;;;5015523;28;20914;-76
2023/01/13 11:46:49;;;;;;;4.00;3.63;;;9.50;99.90;;;;;;5025928;28;20481;-76
2023/01/13 11:49:26;;;;;;;4.53;2.40;;;9.70;99.90;;;;;;5024049;28;20446;-75
2023/01/13 11:52:00;;;;;;;2.73;1.33;;;9.60;99.90;;;;;;5023837;28;20592;-76
2023/01/13 11:54:41;;;;;;;1.67;0.83;;;9.60;99.90;;;;;;5023034;28;20520;-76
2023/01/13 11:57:26;;;;;;;1.87;0.70;;;9.50;99.90;;;;;;5020308;28;20469;-76
2023/01/13 12:00:18;;;;;;;2.20;0.50;;;9.20;99.90;;;;;;5024500;28;20818;-76
2023/01/13 12:02:53;;;;;;;0.70;0.50;;;8.90;99.90;;;;;;5018009;28;21025;-76
2023/01/13 12:05:29;;;;;;;1.70;0.70;;;8.80;99.90;;;;;;5014402;28;20492;-75
2023/01/13 12:08:12;;;;;;;5.57;1.03;;;8.70;99.90;;;;;;5035728;28;20533;-78
2023/01/13 12:10:53;;;;;;;0.53;0.50;;;8.50;99.90;;;;;;5023736;28;20453;-77
2023/01/13 12:13:28;;;;;;;2.47;0.60;;;8.20;99.90;;;;;;5021140;28;20461;-77
2023/01/13 12:16:11;;;;;;;1.33;0.97;;;8.20;99.90;;;;;;5026367;28;20493;-78
2023/01/13 12:18:57;;;;;;;2.30;1.45;;;8.20;99.90;;;;;;5023924;28;20477;-78
2023/01/13 12:21:27;;;;;;;0.50;0.40;;;8.20;99.90;;;;;;5020456;28;20322;-78
2023/01/13 12:24:09;;;;;;;4.63;0.50;;;8.10;99.90;;;;;;5017565;28;20579;-78
2023/01/13 12:26:41;;;;;;;0.80;0.53;;;8.10;99.90;;;;;;5027877;28;21125;-78
2023/01/13 12:29:14;;;;;;;0.50;0.33;;;8.10;99.90;;;;;;5016044;28;20493;-76
2023/01/13 12:31:43;;;;;;;1.50;0.40;;;8.20;99.90;;;;;;5018649;28;20474;-76
2023/01/13 12:34:24;;;;;;;0.70;0.60;;;8.30;99.90;;;;;;5025020;28;20580;-75
2023/01/13 12:36:59;;;;;;;6.30;3.80;;;8.50;99.90;;;;;;5023650;28;20466;-76
2023/01/13 12:39:37;;;;;;;1.57;1.20;;;8.80;99.90;;;;;;5020702;28;20498;-76
2023/01/13 12:45:25;;;;;;;1.10;0.90;;;9.00;99.90;;;;;;5023683;28;21049;-76
2023/01/13 12:47:53;;;;;;;1.53;1.00;;;9.10;99.90;;;;;;5016259;28;20471;-76
2023/01/13 12:50:41;;;;;;;2.42;0.90;;;9.10;99.90;;;;;;5020907;28;20472;-75
2023/01/13 12:53:31;;;;;;;1.27;0.97;;;9.10;99.90;;;;;;5016622;28;20299;-76
2023/01/13 12:56:30;;;;;;;6.37;0.63;;;9.00;99.90;;;;;;5022198;28;20549;-76
2023/01/13 12:59:35;;;;;;;2.97;0.90;;;9.00;99.90;;;;;;5025853;28;20465;-76
2023/01/13 13:02:31;;;;;;;2.50;1.40;;;9.00;99.90;;;;;;5017834;28;20990;-75
2023/01/13 13:05:21;;;;;;;2.50;1.10;;;9.00;99.90;;;;;;5016487;28;20513;-76
2023/01/13 13:07:51;;;;;;;4.30;1.40;;;8.90;99.90;;;;;;5021609;28;21241;-76
2023/01/13 13:10:24;;;;;;;1.00;0.75;;;8.80;99.90;;;;;;5020186;28;20486;-75
2023/01/13 13:15:43;;;;;;;1.73;1.27;;;8.60;99.90;;;;;;5020794;28;20449;-75
2023/01/13 13:18:27;;;;;;;2.47;1.43;;;8.60;99.90;;;;;;5020138;28;20446;-76
2023/01/13 13:21:00;;;;;;;5.40;1.73;;;8.60;99.90;;;;;;5025401;28;20546;-76
2023/01/13 13:23:57;;;;;;;2.28;0.95;;;8.60;99.90;;;;;;5020953;28;20940;-76
2023/01/13 13:26:30;;;;;;;1.33;1.03;;;8.80;99.90;;;;;;5020561;28;20235;-76
2023/01/13 13:29:22;;;;;;;2.17;1.00;;;8.80;99.90;;;;;;5023742;28;20457;-76
2023/01/13 13:32:25;;;;;;;1.50;1.20;;;8.80;99.90;;;;;;5016966;28;20493;-76
2023/01/13 13:35:04;;;;;;;1.30;1.20;;;8.90;99.90;;;;;;5020779;28;21147;-77
2023/01/13 13:49:12;;;;;;;2.97;1.20;;;8.90;99.90;;;;;;5016020;28;20461;-76
2023/01/13 13:51:47;;;;;;;2.27;1.20;;;8.80;99.90;;;;;;5024495;28;20532;-76
2023/01/13 13:54:18;;;;;;;2.07;1.70;;;8.80;99.90;;;;;;5021216;28;20456;-76
2023/01/13 13:56:46;;;;;;;2.93;0.87;;;8.70;99.90;;;;;;5028945;28;20458;-76
2023/01/13 13:59:18;;;;;;;1.60;1.37;;;8.70;99.90;;;;;;5016251;28;20476;-76
2023/01/13 14:01:49;;;;;;;2.40;1.63;;;8.80;99.90;;;;;;5023581;28;20517;-76
2023/01/13 14:04:20;;;;;;;3.87;3.43;;;8.70;99.90;;;;;;5018819;28;20608;-75
2023/01/13 14:06:53;;;;;;;2.97;1.57;;;8.60;99.90;;;;;;5027050;28;20534;-76
2023/01/13 14:09:21;;;;;;;1.13;0.80;;;8.60;99.90;;;;;;5020307;28;20478;-76
2023/01/13 14:12:00;;;;;;;2.10;0.53;;;8.60;99.90;;;;;;5017510;28;20486;-76
2023/01/13 14:14:27;;;;;;;0.60;0.50;;;8.80;99.90;;;;;;5015029;28;20497;-76
2023/01/13 14:16:54;;;;;;;1.33;0.60;;;9.00;99.90;;;;;;5021973;28;20477;-76
2023/01/13 14:19:28;;;;;;;0.93;0.60;;;9.20;99.90;;;;;;5018354;28;20465;-76
2023/01/13 14:21:57;;;;;;;2.67;0.50;;;9.20;99.90;;;;;;5020559;28;20454;-76
2023/01/13 14:24:24;;;;;;;2.00;0.87;;;9.20;99.90;;;;;;5015906;28;20868;-76
2023/01/13 14:26:52;;;;;;;4.97;0.70;;;9.10;99.90;;;;;;5016237;28;20458;-76